Upstream stations:
Downstream station:
SHEF ID: CDNT2 Canadian Rv nr Canadian, TX
STATION TYPE:
Regulating: Stage = 8.00, Flow = 5231
STAGE RIV-FLOW BAT-LOAD
ft cfs volt
Ccp-Rev Ccp-Rev Ccp-Rev
(US/Central)
05/10 00:00 1.18 37 12.41
05/10 01:00 1.18 37 12.41
05/10 02:00 1.17 36 12.41
05/10 03:00 1.18 37 12.33
05/10 04:00 1.17 36 12.33
05/10 05:00 1.18 37 12.33
05/10 06:00 1.18 37 12.33
05/10 07:00 1.17 36 12.25
05/10 08:00 1.18 37 12.25
05/10 09:00 1.19 38 12.33
05/10 10:00 1.19 38 12.49
05/10 11:00 1.19 38 12.73
05/10 12:00 1.19 38 12.97
05/10 13:00 1.19 38 13.05
05/10 14:00 1.19 38 13.05
05/10 15:00 1.18 37 13.05
05/10 16:00 1.18 37 13.05
05/10 17:00 1.18 37 12.89
05/10 18:00 1.16 34 12.57
05/10 19:00 1.17 36 12.49
05/10 20:00 1.23 42 12.41
05/10 21:00 1.33 53 12.41
05/10 22:00 1.42 65 12.41
05/10 23:00 ---- ---- ----